Time;durP1;ratioP1;P1;durP2;ratioP2;P2;SDS_P1;SDS_P2;PMS_P1;PMS_P2;Temp;Humidity;BMP_temperature;BMP_pressure;BME280_temperature;BME280_humidity;BME280_pressure;Samples;Min_cycle;Max_cycle;Signal;HPM_P1;HPM_P2
2022/08/26 00:01:53;;;;;;;21.42;14.32;;;21.10;1.00;;;;;;5036024;28;20504;-67
2022/08/26 00:04:19;;;;;;;20.98;11.88;;;21.40;1.00;;;;;;5037619;28;20037;-67
2022/08/26 00:06:44;;;;;;;19.95;11.77;;;21.50;1.00;;;;;;5037034;28;20460;-67
2022/08/26 00:09:10;;;;;;;17.88;11.68;;;21.60;1.00;;;;;;5036978;28;20053;-67
2022/08/26 00:11:36;;;;;;;21.92;10.60;;;21.70;1.00;;;;;;5042938;28;20029;-67
2022/08/26 00:14:02;;;;;;;18.67;10.88;;;21.60;1.00;;;;;;5021937;28;20048;-67
2022/08/26 00:16:28;;;;;;;16.33;10.52;;;20.60;1.00;;;;;;5043236;28;20037;-67
2022/08/26 00:18:54;;;;;;;16.13;9.82;;;20.60;1.00;;;;;;5041223;28;20033;-67
2022/08/26 00:21:20;;;;;;;17.38;8.20;;;21.80;1.00;;;;;;5039143;28;20402;-67
2022/08/26 00:23:46;;;;;;;17.58;8.68;;;20.50;1.00;;;;;;5039523;28;20045;-67
2022/08/26 00:26:12;;;;;;;14.63;8.07;;;21.90;1.00;;;;;;5032473;28;20124;-67
2022/08/26 00:28:37;;;;;;;14.90;8.98;;;22.40;1.00;;;;;;5047262;28;20124;-67
2022/08/26 00:31:03;;;;;;;14.98;9.15;;;22.10;1.00;;;;;;5031250;28;20116;-67
2022/08/26 00:33:29;;;;;;;17.00;9.48;;;20.80;1.00;;;;;;5039239;28;20043;-67
2022/08/26 00:35:55;;;;;;;18.27;9.35;;;20.50;1.00;;;;;;5039085;28;20029;-67
2022/08/26 00:38:21;;;;;;;16.75;8.55;;;20.40;1.00;;;;;;5035777;28;20086;-67
2022/08/26 00:40:51;;;;;;;18.27;9.52;;;22.60;1.00;;;;;;5038637;28;20560;-68
2022/08/26 00:43:17;;;;;;;16.27;9.55;;;22.00;1.00;;;;;;5032367;28;20083;-67
2022/08/26 00:45:48;;;;;;;16.65;9.18;;;20.40;1.00;;;;;;5045296;28;20048;-67
2022/08/26 00:48:20;;;;;;;17.88;9.20;;;20.60;1.00;;;;;;5035638;28;20065;-67
2022/08/26 00:50:54;;;;;;;14.85;8.50;;;21.50;1.00;;;;;;5020984;28;20038;-67
2022/08/26 00:53:24;;;;;;;23.70;8.98;;;21.40;1.00;;;;;;5050817;28;20068;-67
2022/08/26 00:56:08;;;;;;;13.88;7.30;;;21.50;1.00;;;;;;5038875;28;20108;-67
2022/08/26 00:58:36;;;;;;;16.00;6.82;;;21.30;1.00;;;;;;5039731;28;20049;-67
2022/08/26 01:01:03;;;;;;;14.82;6.55;;;20.40;1.00;;;;;;5045818;28;20553;-67
2022/08/26 01:03:32;;;;;;;14.75;6.40;;;20.30;1.00;;;;;;5029897;28;20154;-67
2022/08/26 01:06:00;;;;;;;12.48;6.22;;;20.60;1.00;;;;;;5032583;28;20030;-67
2022/08/26 01:08:26;;;;;;;16.73;6.38;;;21.10;1.00;;;;;;5046308;28;20464;-67
2022/08/26 01:10:53;;;;;;;10.00;5.40;;;20.70;1.00;;;;;;5017304;28;20037;-67
2022/08/26 01:13:20;;;;;;;13.27;4.70;;;21.40;1.00;;;;;;5038303;28;20044;-67
2022/08/26 01:15:49;;;;;;;18.10;5.75;;;21.40;1.00;;;;;;5046814;28;20041;-67
2022/08/26 01:18:15;;;;;;;11.90;4.78;;;20.70;1.00;;;;;;5036768;28;20398;-67
2022/08/26 01:20:56;;;;;;;10.50;4.35;;;20.30;1.00;;;;;;5035436;28;20387;-67
2022/08/26 01:23:22;;;;;;;14.80;5.13;;;20.20;1.00;;;;;;5038058;28;20036;-67
2022/08/26 01:25:54;;;;;;;15.25;4.85;;;20.10;1.00;;;;;;5047144;28;20124;-67
2022/08/26 01:28:25;;;;;;;15.30;4.15;;;21.20;1.00;;;;;;5034773;28;20167;-67
2022/08/26 01:30:53;;;;;;;9.32;3.83;;;19.90;1.00;;;;;;5039238;28;20092;-67
2022/08/26 01:33:25;;;;;;;10.70;3.20;;;20.30;1.00;;;;;;5016426;28;20119;-67
2022/08/26 01:35:50;;;;;;;9.48;3.15;;;20.10;1.00;;;;;;5052300;22;20045;-84
2022/08/26 01:38:17;;;;;;;8.48;2.85;;;18.40;1.00;;;;;;5011867;28;20084;-84
2022/08/26 01:40:44;;;;;;;14.05;2.60;;;19.90;1.00;;;;;;5012275;28;20046;-84
2022/08/26 01:43:16;;;;;;;8.98;2.58;;;20.00;1.00;;;;;;5011444;28;20414;-84
2022/08/26 01:45:42;;;;;;;7.10;2.28;;;20.20;1.00;;;;;;5010930;28;20301;-84
2022/08/26 01:48:14;;;;;;;10.73;2.40;;;20.50;1.00;;;;;;4982182;28;20061;-84
2022/08/26 01:50:41;;;;;;;8.38;2.95;;;19.80;1.00;;;;;;5030019;28;20037;-84
2022/08/26 01:53:10;;;;;;;8.82;2.47;;;19.60;1.00;;;;;;5033797;28;20076;-84
2022/08/26 01:55:39;;;;;;;9.88;2.38;;;19.80;1.00;;;;;;4987720;28;20378;-86
2022/08/26 01:58:16;;;;;;;9.25;2.85;;;19.70;1.00;;;;;;5010353;28;20195;-84
2022/08/26 02:00:45;;;;;;;9.88;2.85;;;19.80;1.00;;;;;;5014617;28;20044;-85
2022/08/26 02:03:17;;;;;;;6.88;2.30;;;21.30;1.00;;;;;;5000656;28;20592;-84
2022/08/26 02:05:52;;;;;;;8.15;2.38;;;19.60;1.00;;;;;;5017242;28;20511;-84
2022/08/26 02:08:41;;;;;;;10.52;2.53;;;20.00;1.00;;;;;;4999742;28;20119;-84
2022/08/26 02:11:15;;;;;;;9.15;2.45;;;19.70;1.00;;;;;;4994554;28;20056;-85
2022/08/26 02:13:48;;;;;;;13.75;2.80;;;20.00;1.00;;;;;;5015253;28;20045;-84
2022/08/26 02:16:20;;;;;;;9.77;2.47;;;20.20;1.00;;;;;;5017672;28;20228;-84
2022/08/26 02:18:47;;;;;;;8.13;2.47;;;19.20;1.00;;;;;;5009027;28;20045;-84
2022/08/26 02:21:14;;;;;;;9.30;2.30;;;20.10;1.00;;;;;;5002546;28;20041;-84
2022/08/26 02:23:40;;;;;;;12.27;2.85;;;20.20;1.00;;;;;;5040140;28;20049;-85
2022/08/26 02:26:10;;;;;;;9.50;2.65;;;19.90;1.00;;;;;;5005019;28;20033;-85
2022/08/26 02:28:46;;;;;;;9.52;2.80;;;20.00;1.00;;;;;;5012610;28;20103;-84
2022/08/26 02:31:12;;;;;;;9.18;2.75;;;19.70;1.00;;;;;;5012992;28;20082;-84
2022/08/26 02:33:40;;;;;;;12.00;3.15;;;20.30;1.00;;;;;;5030413;28;21933;-84
2022/08/26 02:36:06;;;;;;;13.10;2.95;;;19.70;1.00;;;;;;4996981;28;20051;-84
2022/08/26 02:38:33;;;;;;;13.00;3.15;;;19.60;1.00;;;;;;5030368;28;20049;-84
2022/08/26 02:40:58;;;;;;;13.77;2.95;;;20.00;1.00;;;;;;5012122;28;20041;-84
2022/08/26 02:43:24;;;;;;;13.15;2.38;;;20.40;1.00;;;;;;5013122;28;20041;-84
2022/08/26 02:45:50;;;;;;;10.65;2.40;;;20.20;1.00;;;;;;4988298;28;20040;-85
2022/08/26 02:48:18;;;;;;;10.82;2.20;;;19.20;1.00;;;;;;5011908;28;20041;-84
2022/08/26 02:50:45;;;;;;;10.18;2.95;;;22.30;1.00;;;;;;4995053;28;20286;-86
2022/08/26 02:53:12;;;;;;;9.95;2.45;;;19.80;1.00;;;;;;5000139;28;20038;-85
2022/08/26 02:55:41;;;;;;;7.55;2.47;;;20.00;1.00;;;;;;5033899;28;20265;-84
2022/08/26 02:58:10;;;;;;;10.00;2.67;;;20.00;1.00;;;;;;5016119;28;20376;-85
2022/08/26 03:00:37;;;;;;;10.45;2.42;;;20.10;1.00;;;;;;4995388;28;20518;-84
2022/08/26 03:03:03;;;;;;;7.93;2.00;;;19.50;1.00;;;;;;5014418;28;20049;-84
2022/08/26 03:05:29;;;;;;;10.52;2.85;;;20.50;1.00;;;;;;5031710;28;20034;-85
2022/08/26 03:07:58;;;;;;;8.35;2.17;;;20.60;1.00;;;;;;5013467;28;20107;-85
2022/08/26 03:10:24;;;;;;;13.52;2.33;;;20.30;1.00;;;;;;5013646;28;20041;-84
2022/08/26 03:12:53;;;;;;;13.80;2.90;;;20.50;1.00;;;;;;4997058;28;20045;-85
2022/08/26 03:15:19;;;;;;;9.25;2.10;;;19.50;1.00;;;;;;5012273;28;20033;-84
2022/08/26 03:17:46;;;;;;;9.20;2.85;;;20.30;1.00;;;;;;5013171;28;20436;-85
2022/08/26 03:20:14;;;;;;;9.82;3.08;;;18.80;1.00;;;;;;5013930;28;20033;-84
2022/08/26 03:22:41;;;;;;;8.35;2.15;;;20.50;1.00;;;;;;5006031;28;20113;-84
2022/08/26 03:25:09;;;;;;;11.13;2.67;;;19.60;1.00;;;;;;4997886;28;20767;-85
2022/08/26 03:27:35;;;;;;;10.32;2.78;;;20.30;1.00;;;;;;4997574;28;20555;-85
2022/08/26 03:32:52;;;;;;;9.82;2.50;;;19.70;1.00;;;;;;5013765;28;20049;-84
2022/08/26 03:35:21;;;;;;;10.00;2.95;;;20.20;1.00;;;;;;5013703;28;20072;-85
2022/08/26 03:37:49;;;;;;;9.23;2.85;;;20.20;1.00;;;;;;5012872;28;20056;-84
2022/08/26 03:40:15;;;;;;;14.77;2.72;;;19.30;1.00;;;;;;5013232;28;20073;-85
2022/08/26 03:42:43;;;;;;;12.75;2.60;;;20.60;1.00;;;;;;5013665;28;20099;-84
2022/08/26 03:45:10;;;;;;;10.65;3.22;;;20.00;1.00;;;;;;5013831;28;20037;-84
2022/08/26 03:47:38;;;;;;;12.65;2.63;;;19.70;1.00;;;;;;5012225;28;20479;-84
2022/08/26 03:50:05;;;;;;;12.57;2.65;;;19.90;1.00;;;;;;5012981;28;20463;-84
2022/08/26 03:52:30;;;;;;;10.80;2.88;;;20.20;1.00;;;;;;5012973;28;20048;-84
2022/08/26 03:54:57;;;;;;;11.05;2.72;;;21.40;1.00;;;;;;5013042;28;20041;-85
2022/08/26 03:57:22;;;;;;;12.40;2.92;;;19.50;1.00;;;;;;5011981;28;20148;-85
2022/08/26 03:59:51;;;;;;;17.20;3.30;;;20.20;1.00;;;;;;4999485;28;20056;-84
2022/08/26 04:02:17;;;;;;;12.85;3.33;;;19.90;1.00;;;;;;5013741;28;20073;-84
2022/08/26 04:05:32;;;;;;;12.48;3.08;;;20.50;1.00;;;;;;4996868;28;20077;-85
2022/08/26 04:07:58;;;;;;;13.57;2.92;;;19.70;1.00;;;;;;5023974;28;20053;-85
2022/08/26 04:10:26;;;;;;;10.50;2.40;;;19.30;1.00;;;;;;5012946;28;20048;-84
2022/08/26 04:12:52;;;;;;;8.75;2.53;;;20.10;1.00;;;;;;5012010;28;20184;-85
2022/08/26 04:15:19;;;;;;;10.55;2.45;;;19.80;1.00;;;;;;4995013;28;20065;-84
2022/08/26 04:17:44;;;;;;;12.05;3.20;;;20.30;1.00;;;;;;4995614;28;20576;-84
2022/08/26 04:20:12;;;;;;;10.82;3.00;;;20.40;1.00;;;;;;5028054;28;20072;-84
2022/08/26 04:22:41;;;;;;;9.85;3.55;;;20.50;1.00;;;;;;4996375;28;20464;-86
2022/08/26 04:25:07;;;;;;;9.32;2.60;;;19.80;1.00;;;;;;5012524;28;20052;-84
2022/08/26 04:27:36;;;;;;;10.75;2.45;;;19.70;1.00;;;;;;5010743;28;20094;-84
2022/08/26 04:30:04;;;;;;;10.50;2.85;;;20.10;1.00;;;;;;4981820;28;20046;-84
2022/08/26 04:32:29;;;;;;;9.90;2.60;;;20.40;1.00;;;;;;4981109;28;20034;-85
2022/08/26 04:34:58;;;;;;;10.23;2.30;;;20.40;1.00;;;;;;4991534;28;20117;-84
2022/08/26 04:37:24;;;;;;;9.32;2.40;;;;;;;;;;4991980;28;20037;-84
2022/08/26 04:39:51;;;;;;;7.85;2.03;;;20.40;1.00;;;;;;5027341;28;20052;-84
2022/08/26 04:42:17;;;;;;;11.30;2.00;;;19.90;1.00;;;;;;5010820;28;20069;-84
2022/08/26 04:44:43;;;;;;;13.07;3.05;;;20.30;1.00;;;;;;5013632;28;20139;-84
2022/08/26 04:47:18;;;;;;;16.75;2.88;;;20.50;1.00;;;;;;5005605;28;20048;-85
2022/08/26 04:50:05;;;;;;;9.27;2.53;;;20.30;1.00;;;;;;4994423;28;20095;-87
2022/08/26 04:53:23;;;;;;;16.38;3.30;;;19.70;1.00;;;;;;4996667;28;20598;-84
2022/08/26 04:56:02;;;;;;;7.72;2.00;;;20.10;1.00;;;;;;4995152;28;20057;-82
2022/08/26 04:58:40;;;;;;;10.07;2.97;;;19.90;1.00;;;;;;5018744;28;20037;-84
2022/08/26 05:01:24;;;;;;;11.50;3.50;;;20.30;1.00;;;;;;5019358;28;20057;-84
2022/08/26 05:03:50;;;;;;;11.85;2.85;;;19.50;1.00;;;;;;5002093;22;20136;-60
2022/08/26 05:06:18;;;;;;;8.05;2.20;;;20.60;1.00;;;;;;5017754;28;20403;-56
2022/08/26 05:08:43;;;;;;;10.35;2.78;;;19.90;1.00;;;;;;5017481;28;20042;-61
2022/08/26 05:11:09;;;;;;;9.55;2.65;;;20.40;1.00;;;;;;5016946;28;20045;-60
2022/08/26 05:13:35;;;;;;;10.40;2.65;;;20.40;1.00;;;;;;5023169;28;20192;-58
2022/08/26 05:16:05;;;;;;;9.07;2.80;;;19.70;1.00;;;;;;5022387;28;20072;-59
2022/08/26 05:18:32;;;;;;;16.27;3.25;;;19.80;1.00;;;;;;5015834;28;20431;-57
2022/08/26 05:21:02;;;;;;;12.18;3.05;;;19.80;1.00;;;;;;5015098;28;20131;-60
2022/08/26 05:23:30;;;;;;;10.18;3.45;;;19.80;1.00;;;;;;5018389;28;20422;-58
2022/08/26 05:26:01;;;;;;;12.57;2.95;;;19.60;1.00;;;;;;5012814;28;20053;-59
2022/08/26 05:28:28;;;;;;;14.82;2.60;;;20.50;1.00;;;;;;5023981;28;20040;-61
2022/08/26 05:30:56;;;;;;;11.27;2.55;;;19.70;1.00;;;;;;5014376;28;20057;-58
2022/08/26 05:33:22;;;;;;;11.90;2.33;;;19.90;1.00;;;;;;5018161;28;20044;-58
2022/08/26 05:35:48;;;;;;;10.27;2.40;;;19.40;1.00;;;;;;5015410;28;20038;-59
2022/08/26 05:38:18;;;;;;;11.38;2.72;;;19.70;1.00;;;;;;5018087;28;20388;-57
2022/08/26 05:40:47;;;;;;;10.93;3.00;;;19.70;1.00;;;;;;5016376;28;20038;-60
2022/08/26 05:43:14;;;;;;;14.55;2.30;;;19.60;1.00;;;;;;5013056;28;20503;-57
2022/08/26 05:45:43;;;;;;;10.88;2.60;;;19.80;1.00;;;;;;5023910;28;20038;-61
2022/08/26 05:48:11;;;;;;;9.63;2.00;;;20.00;1.00;;;;;;5012324;28;20084;-58
2022/08/26 05:50:46;;;;;;;12.48;3.47;;;19.80;1.00;;;;;;5024090;28;20558;-60
2022/08/26 05:53:13;;;;;;;14.85;2.85;;;20.00;1.00;;;;;;5014452;28;20220;-58
2022/08/26 05:55:51;;;;;;;13.98;2.28;;;19.70;1.00;;;;;;5018868;28;20513;-56
2022/08/26 05:58:19;;;;;;;15.70;3.42;;;19.60;1.00;;;;;;5014854;28;20036;-59
2022/08/26 06:00:47;;;;;;;8.65;2.25;;;21.10;1.00;;;;;;4992567;28;20037;-58
2022/08/26 06:03:13;;;;;;;13.07;2.42;;;19.80;1.00;;;;;;5011321;28;20096;-59
2022/08/26 06:05:40;;;;;;;8.93;1.95;;;20.10;1.00;;;;;;5019930;28;20418;-60
2022/08/26 06:08:10;;;;;;;11.70;2.92;;;20.70;1.00;;;;;;5023744;28;20038;-59
2022/08/26 06:10:51;;;;;;;11.57;2.45;;;19.90;1.00;;;;;;5012019;28;20419;-57
2022/08/26 06:13:22;;;;;;;6.30;2.45;;;20.40;1.00;;;;;;5021457;28;20095;-59
2022/08/26 06:15:52;;;;;;;8.32;2.75;;;20.00;1.00;;;;;;5004750;28;20060;-58
2022/08/26 06:18:22;;;;;;;10.50;2.15;;;19.90;1.00;;;;;;5016152;28;20113;-58
2022/08/26 06:20:49;;;;;;;9.43;2.00;;;21.00;1.00;;;;;;5017485;28;20046;-57
2022/08/26 06:26:06;;;;;;;14.23;2.28;;;20.00;1.00;;;;;;5016282;28;20038;-56
2022/08/26 06:28:32;;;;;;;6.30;2.20;;;19.70;1.00;;;;;;5021092;28;20504;-59
2022/08/26 06:30:57;;;;;;;8.40;1.98;;;19.80;1.00;;;;;;5019455;28;20095;-56
2022/08/26 06:33:25;;;;;;;12.35;2.90;;;19.50;1.00;;;;;;5019189;28;20048;-56
2022/08/26 06:35:52;;;;;;;6.85;2.17;;;20.20;1.00;;;;;;5017235;28;20290;-57
2022/08/26 06:38:18;;;;;;;12.20;2.53;;;20.10;1.00;;;;;;5028855;28;20037;-56
2022/08/26 06:40:47;;;;;;;9.00;2.70;;;20.10;1.00;;;;;;5025187;28;20506;-57
2022/08/26 06:43:16;;;;;;;9.52;2.20;;;20.90;1.00;;;;;;5025533;28;20064;-56
2022/08/26 06:45:44;;;;;;;9.35;2.40;;;19.90;1.00;;;;;;5028902;28;20042;-57
2022/08/26 06:48:17;;;;;;;7.57;2.28;;;20.40;1.00;;;;;;5005546;28;20052;-57
2022/08/26 06:50:43;;;;;;;8.75;1.95;;;21.40;1.00;;;;;;5020697;28;20029;-58
2022/08/26 06:53:12;;;;;;;8.32;2.72;;;19.80;1.00;;;;;;5024722;28;20033;-61
2022/08/26 06:55:44;;;;;;;8.25;2.13;;;20.30;1.00;;;;;;5009859;28;20120;-57
2022/08/26 06:58:11;;;;;;;7.90;1.70;;;20.40;1.00;;;;;;5013079;28;20033;-58
2022/08/26 07:00:38;;;;;;;9.02;1.90;;;21.50;1.00;;;;;;5019079;28;20518;-57
2022/08/26 07:03:05;;;;;;;11.55;2.08;;;21.20;1.00;;;;;;5022171;28;20587;-57
2022/08/26 07:05:32;;;;;;;7.70;1.85;;;20.10;1.00;;;;;;5018426;28;20545;-58
2022/08/26 07:07:58;;;;;;;9.73;2.15;;;20.00;1.00;;;;;;5014680;28;20038;-57
2022/08/26 07:10:25;;;;;;;11.50;1.83;;;20.50;1.00;;;;;;5029618;28;20033;-57
2022/08/26 07:12:51;;;;;;;13.30;2.42;;;20.90;1.00;;;;;;5020844;28;20431;-60
2022/08/26 07:15:17;;;;;;;5.00;1.58;;;21.10;1.00;;;;;;5014634;28;20034;-58
2022/08/26 07:17:43;;;;;;;10.32;1.80;;;20.10;1.00;;;;;;5003231;28;20487;-58
2022/08/26 07:20:10;;;;;;;7.03;1.50;;;21.20;1.00;;;;;;5027484;28;20507;-56
2022/08/26 07:22:37;;;;;;;8.00;1.70;;;20.10;1.00;;;;;;5024377;28;20044;-56
2022/08/26 07:25:07;;;;;;;9.13;1.58;;;20.60;1.00;;;;;;5019286;28;20056;-57
2022/08/26 07:27:34;;;;;;;9.00;1.80;;;21.40;1.00;;;;;;5023754;28;20483;-57
2022/08/26 07:30:01;;;;;;;8.07;1.88;;;21.40;1.00;;;;;;5016642;28;20045;-57
2022/08/26 07:32:27;;;;;;;10.95;1.65;;;20.90;1.00;;;;;;4996144;28;20084;-57
2022/08/26 07:37:21;;;;;;;7.97;1.92;;;;;;;;;;5036942;28;20040;-60
2022/08/26 07:39:47;;;;;;;10.45;2.83;;;21.00;1.00;;;;;;5033192;28;20050;-60
2022/08/26 07:42:14;;;;;;;11.13;3.03;;;;;;;;;;5019666;28;20040;-60
2022/08/26 07:44:40;;;;;;;11.55;1.55;;;;;;;;;;5039532;28;20059;-59
2022/08/26 07:47:07;;;;;;;7.35;1.50;;;20.80;1.00;;;;;;5027053;28;20290;-57
2022/08/26 07:49:34;;;;;;;6.28;1.60;;;21.10;1.00;;;;;;5027756;28;20033;-60
2022/08/26 07:52:00;;;;;;;10.25;1.80;;;;;;;;;;5027412;28;20034;-60
2022/08/26 07:54:26;;;;;;;8.45;1.83;;;20.90;1.00;;;;;;5024746;28;20065;-60
2022/08/26 07:56:52;;;;;;;7.82;2.00;;;;;;;;;;5007258;28;20557;-60
2022/08/26 07:59:19;;;;;;;9.20;1.92;;;;;;;;;;5021679;28;20049;-60
2022/08/26 08:01:45;;;;;;;9.65;1.67;;;20.80;1.00;;;;;;5024193;28;20488;-60
2022/08/26 08:04:16;;;;;;;7.95;1.48;;;20.80;1.00;;;;;;5023812;28;20372;-56
2022/08/26 08:06:42;;;;;;;6.85;1.30;;;;;;;;;;5023086;28;20103;-60
2022/08/26 08:09:09;;;;;;;6.72;1.65;;;21.30;1.00;;;;;;5018198;28;20041;-61
2022/08/26 08:11:34;;;;;;;6.32;1.65;;;21.10;1.00;;;;;;5018157;28;20044;-60
2022/08/26 08:14:01;;;;;;;5.93;1.88;;;20.90;1.00;;;;;;5016502;28;20527;-61
2022/08/26 08:16:28;;;;;;;8.75;1.70;;;;;;;;;;5008442;28;20038;-60
2022/08/26 08:18:55;;;;;;;9.02;1.75;;;;;;;;;;5009192;28;20076;-60
2022/08/26 08:21:21;;;;;;;10.90;2.00;;;;;;;;;;5022189;28;20046;-60
2022/08/26 08:23:47;;;;;;;9.55;2.42;;;20.80;1.00;;;;;;5010040;28;20103;-61
2022/08/26 08:26:12;;;;;;;10.93;1.90;;;20.60;1.00;;;;;;5022488;28;20245;-61
2022/08/26 08:28:38;;;;;;;8.50;1.65;;;20.80;1.00;;;;;;5016981;28;20112;-57
2022/08/26 08:31:05;;;;;;;8.60;1.85;;;20.50;1.00;;;;;;5020972;28;20465;-58
2022/08/26 08:33:32;;;;;;;9.93;1.70;;;;;;;;;;5024129;28;20113;-59
2022/08/26 08:35:58;;;;;;;9.25;1.67;;;19.80;1.00;;;;;;5019603;28;20049;-60
2022/08/26 08:38:24;;;;;;;7.03;1.50;;;;;;;;;;5022823;28;20036;-58
2022/08/26 08:40:50;;;;;;;13.50;2.72;;;;;;;;;;5001939;28;20119;-56
2022/08/26 08:43:38;;;;;;;8.18;1.95;;;;;;;;;;5022316;28;20569;-60
2022/08/26 08:46:07;;;;;;;7.78;2.00;;;;;;;;;;5007436;28;20076;-60
2022/08/26 08:48:35;;;;;;;9.55;2.53;;;;;;;;;;5030988;28;20037;-60
2022/08/26 08:51:13;;;;;;;10.07;2.13;;;;;;;;;;5031848;28;20438;-61
2022/08/26 08:53:42;;;;;;;6.60;1.40;;;;;;;;;;5026937;28;20048;-60
2022/08/26 08:56:24;;;;;;;6.75;1.77;;;20.40;1.00;;;;;;5031622;28;20076;-62
2022/08/26 08:59:06;;;;;;;10.27;1.70;;;;;;;;;;5031066;28;20029;-60
2022/08/26 09:01:41;;;;;;;7.30;2.22;;;;;;;;;;5030652;28;20125;-59
2022/08/26 09:04:49;;;;;;;9.32;1.60;;;20.30;1.00;;;;;;5030553;28;20491;-58
2022/08/26 09:07:17;;;;;;;8.57;1.88;;;;;;;;;;5024176;28;20417;-58
2022/08/26 09:09:52;;;;;;;8.68;1.50;;;;;;;;;;5029486;28;20037;-60
2022/08/26 09:12:24;;;;;;;9.35;1.60;;;20.30;1.00;;;;;;5030277;28;20079;-58
2022/08/26 09:14:51;;;;;;;8.25;1.60;;;;;;;;;;5007037;28;20042;-60
2022/08/26 09:17:35;;;;;;;8.50;1.65;;;;;;;;;;5030172;28;20040;-58
2022/08/26 09:20:01;;;;;;;;;;;;;;;;;;5023853;28;20033;-62
2022/08/26 09:22:33;;;;;;;7.68;1.95;;;20.70;1.00;;;;;;5029373;28;20310;-57
2022/08/26 09:25:00;;;;;;;8.73;1.58;;;20.40;1.00;;;;;;5030156;28;20045;-60
2022/08/26 09:27:46;;;;;;;7.22;1.75;;;20.20;1.00;;;;;;5029698;28;20194;-62
2022/08/26 09:30:25;;;;;;;10.30;1.70;;;20.20;1.00;;;;;;5024884;28;20033;-59
2022/08/26 09:33:08;;;;;;;6.68;1.75;;;20.50;1.00;;;;;;5030022;28;20139;-60
2022/08/26 09:35:35;;;;;;;6.80;1.98;;;20.60;1.00;;;;;;5010010;28;20403;-57
2022/08/26 09:38:01;;;;;;;7.35;1.38;;;20.50;1.00;;;;;;5030053;28;20057;-60
2022/08/26 09:40:31;;;;;;;6.97;1.80;;;20.80;1.00;;;;;;5030577;28;20391;-58
2022/08/26 09:43:14;;;;;;;5.80;1.30;;;;;;;;;;5026489;28;20042;-60
2022/08/26 09:45:44;;;;;;;11.23;1.83;;;21.50;1.00;;;;;;5011120;28;20045;-60
2022/08/26 09:48:10;;;;;;;6.38;1.35;;;;;;;;;;5024206;28;20049;-60
2022/08/26 09:50:57;;;;;;;9.85;1.77;;;;;;;;;;5006586;28;20056;-59
2022/08/26 09:53:26;;;;;;;5.47;1.30;;;20.90;1.00;;;;;;5029884;28;20037;-58
2022/08/26 09:56:11;;;;;;;5.97;1.80;;;;;;;;;;5029596;28;20085;-60
2022/08/26 09:58:40;;;;;;;7.53;1.65;;;21.30;1.00;;;;;;5026736;28;20048;-57
2022/08/26 10:01:07;;;;;;;7.45;2.13;;;;;;;;;;5021474;28;20373;-60
2022/08/26 10:03:34;;;;;;;5.85;1.25;;;;;;;;;;5033898;28;20037;-60
2022/08/26 10:06:01;;;;;;;10.45;1.60;;;20.80;1.00;;;;;;5023174;28;20041;-58
2022/08/26 10:08:31;;;;;;;8.23;1.90;;;20.90;1.00;;;;;;5032886;28;20044;-60
2022/08/26 10:10:59;;;;;;;12.38;2.30;;;;;;;;;;5035813;28;20495;-57
2022/08/26 10:13:32;;;;;;;8.43;1.67;;;20.90;1.00;;;;;;5034402;28;20131;-58
2022/08/26 10:16:01;;;;;;;6.15;1.55;;;;;;;;;;5020586;28;20038;-60
2022/08/26 10:18:31;;;;;;;6.95;1.33;;;;;;;;;;5014261;28;20041;-57
2022/08/26 10:20:57;;;;;;;6.80;1.42;;;;;;;;;;5035395;28;20549;-58
2022/08/26 10:23:26;;;;;;;8.82;1.40;;;21.00;1.00;;;;;;5036859;28;20044;-58
2022/08/26 10:25:55;;;;;;;6.78;1.48;;;;;;;;;;5036810;28;20041;-61
2022/08/26 10:28:35;;;;;;;11.48;1.50;;;;;;;;;;5041788;28;20432;-58
2022/08/26 10:31:04;;;;;;;8.10;1.98;;;;;;;;;;5034231;28;20041;-58
2022/08/26 10:33:30;;;;;;;8.00;1.40;;;;;;;;;;5022896;28;20040;-57
2022/08/26 10:36:00;;;;;;;6.55;1.65;;;20.50;1.00;;;;;;5031370;28;20403;-57
2022/08/26 10:38:36;;;;;;;6.35;1.60;;;20.40;1.00;;;;;;5038586;28;20038;-57
2022/08/26 10:41:10;;;;;;;6.72;1.75;;;;;;;;;;5032454;28;20038;-60
2022/08/26 10:43:41;;;;;;;7.18;1.55;;;;;;;;;;5038009;28;20037;-59
2022/08/26 10:46:21;;;;;;;5.10;1.30;;;;;;;;;;5041981;28;20045;-61
2022/08/26 10:48:55;;;;;;;8.32;1.73;;;21.00;1.00;;;;;;5039272;28;20049;-58
2022/08/26 10:51:34;;;;;;;9.02;1.92;;;21.00;1.00;;;;;;5038741;28;20033;-61
2022/08/26 10:54:10;;;;;;;9.43;1.83;;;21.00;1.00;;;;;;5035993;28;20605;-59
2022/08/26 10:56:38;;;;;;;9.88;2.78;;;21.10;1.00;;;;;;5036268;28;20044;-59
2022/08/26 10:59:23;;;;;;;9.38;2.65;;;20.50;1.00;;;;;;5017893;28;20037;-57
2022/08/26 11:01:52;;;;;;;;;;;21.40;1.00;;;;;;5033292;28;20072;-58
2022/08/26 11:04:37;;;;;;;8.35;1.60;;;;;;;;;;5013677;28;19964;-59
2022/08/26 11:07:21;;;;;;;7.22;2.25;;;;;;;;;;5025303;28;20053;-57
2022/08/26 11:12:35;;;;;;;8.82;1.73;;;21.30;1.00;;;;;;4970303;26;20050;-88
2022/08/26 11:15:01;;;;;;;6.07;1.38;;;21.00;1.00;;;;;;4998260;28;20060;-88
2022/08/26 11:17:47;;;;;;;6.15;1.40;;;18.80;1.00;;;;;;5008786;28;20041;-88
2022/08/26 11:20:28;;;;;;;5.20;1.70;;;21.60;1.00;;;;;;4989398;28;20100;-88
2022/08/26 11:23:12;;;;;;;4.20;1.10;;;21.80;1.00;;;;;;5012561;22;20220;-56
2022/08/26 11:26:00;;;;;;;4.85;1.63;;;21.80;1.00;;;;;;5053016;28;20072;-57
2022/08/26 11:28:38;;;;;;;4.82;1.23;;;21.60;1.00;;;;;;5052897;28;20047;-55
2022/08/26 11:31:08;;;;;;;6.10;1.75;;;22.10;1.00;;;;;;5052701;28;20076;-56
2022/08/26 11:33:55;;;;;;;7.03;1.33;;;21.10;1.00;;;;;;5052832;28;20082;-58
2022/08/26 11:37:05;;;;;;;6.13;1.65;;;21.70;1.00;;;;;;5052801;28;20132;-59
2022/08/26 11:39:53;;;;;;;8.75;1.73;;;21.80;1.00;;;;;;4934767;28;20122;-56
2022/08/26 11:42:47;;;;;;;6.03;1.20;;;;;;;;;;5045709;22;20061;-58
2022/08/26 11:45:32;;;;;;;4.97;1.20;;;21.50;1.00;;;;;;5035311;28;20111;-58
2022/08/26 11:48:16;;;;;;;7.25;1.70;;;22.00;1.00;;;;;;5044983;28;20443;-57
2022/08/26 11:51:02;;;;;;;6.80;1.70;;;22.20;1.00;;;;;;5043735;28;20036;-57
2022/08/26 11:53:29;;;;;;;5.65;1.30;;;;;;;;;;5041909;28;20040;-57
2022/08/26 11:55:57;;;;;;;5.63;1.55;;;22.60;1.00;;;;;;5023859;28;20038;-56
2022/08/26 11:58:26;;;;;;;9.40;2.00;;;22.00;99.90;;;;;;5028522;28;20033;-57
2022/08/26 12:00:57;;;;;;;6.32;1.65;;;;;;;;;;5039839;28;20044;-57
2022/08/26 12:03:26;;;;;;;6.18;1.38;;;;;;;;;;5040701;28;20048;-55
2022/08/26 12:05:53;;;;;;;7.85;1.45;;;22.90;99.90;;;;;;5032167;28;20403;-59
2022/08/26 12:08:24;;;;;;;7.88;1.80;;;22.80;99.90;;;;;;5049552;28;20040;-57
2022/08/26 12:11:05;;;;;;;6.22;1.55;;;23.20;99.90;;;;;;5040500;28;20276;-57
2022/08/26 12:13:31;;;;;;;6.30;1.33;;;23.10;99.90;;;;;;5041667;28;20116;-57
2022/08/26 12:15:59;;;;;;;5.22;1.50;;;22.70;99.90;;;;;;5039863;28;20029;-57
2022/08/26 12:18:32;;;;;;;4.80;1.35;;;23.10;99.90;;;;;;5035466;28;20114;-57
2022/08/26 12:21:08;;;;;;;6.13;1.40;;;22.50;99.90;;;;;;5037746;28;20048;-55
2022/08/26 12:23:42;;;;;;;8.52;1.80;;;;;;;;;;5022013;28;20106;-57
2022/08/26 12:26:11;;;;;;;5.68;1.23;;;22.50;99.90;;;;;;5037075;28;20037;-57
2022/08/26 12:28:42;;;;;;;8.25;1.50;;;;;;;;;;5040277;28;20045;-57
2022/08/26 12:31:08;;;;;;;8.15;1.60;;;21.90;99.90;;;;;;5018145;28;20721;-56
2022/08/26 12:33:35;;;;;;;7.05;1.30;;;21.50;99.90;;;;;;5039158;28;20045;-57
2022/08/26 12:36:03;;;;;;;4.90;1.25;;;22.30;99.90;;;;;;5033849;28;20451;-57
2022/08/26 12:38:30;;;;;;;7.22;1.50;;;21.50;99.90;;;;;;5037171;28;20399;-57
2022/08/26 12:40:56;;;;;;;7.20;1.45;;;21.40;99.90;;;;;;5019245;28;20040;-57
2022/08/26 12:43:37;;;;;;;6.38;1.40;;;;;;;;;;5042750;28;20036;-57
2022/08/26 12:46:03;;;;;;;4.22;1.17;;;22.70;99.90;;;;;;5042427;28;20045;-57
2022/08/26 12:48:36;;;;;;;6.00;1.30;;;21.90;99.90;;;;;;5045493;28;20037;-56
2022/08/26 12:51:02;;;;;;;8.57;1.50;;;21.90;99.90;;;;;;5045762;28;20041;-57
2022/08/26 12:53:31;;;;;;;4.80;1.30;;;21.60;99.90;;;;;;5029344;28;20144;-57
2022/08/26 12:56:03;;;;;;;7.78;1.67;;;22.10;99.90;;;;;;5045753;28;20079;-57
2022/08/26 12:58:38;;;;;;;5.35;1.73;;;22.00;99.90;;;;;;5047298;28;20339;-58
2022/08/26 13:01:07;;;;;;;7.45;1.50;;;22.50;99.90;;;;;;5039261;28;20033;-57
2022/08/26 13:03:42;;;;;;;5.93;1.20;;;22.60;99.90;;;;;;5044926;28;20402;-58
2022/08/26 13:06:21;;;;;;;8.25;1.42;;;22.10;99.90;;;;;;5033672;28;20116;-55
2022/08/26 13:09:00;;;;;;;4.90;1.13;;;22.50;99.90;;;;;;5043101;28;20041;-57
2022/08/26 13:11:38;;;;;;;6.85;1.30;;;;;;;;;;5049016;28;20045;-53
2022/08/26 13:14:10;;;;;;;6.25;1.52;;;22.70;99.90;;;;;;5037802;28;20132;-53
2022/08/26 13:16:38;;;;;;;4.38;1.30;;;22.00;99.90;;;;;;5041816;28;20056;-55
2022/08/26 13:19:09;;;;;;;5.05;1.83;;;21.60;99.90;;;;;;5038259;28;20395;-52
2022/08/26 13:21:37;;;;;;;6.55;1.65;;;;;;;;;;5040831;28;20068;-55
2022/08/26 13:24:16;;;;;;;8.25;1.27;;;22.30;99.90;;;;;;5037488;28;20060;-55
2022/08/26 13:26:43;;;;;;;5.28;1.63;;;22.30;99.90;;;;;;5022123;28;20040;-54
2022/08/26 13:29:12;;;;;;;5.07;1.40;;;21.70;99.90;;;;;;5043316;28;20103;-56
2022/08/26 13:31:40;;;;;;;8.25;1.92;;;21.50;99.90;;;;;;5020226;28;20037;-57
2022/08/26 13:34:13;;;;;;;9.27;2.40;;;;;;;;;;5030031;28;20540;-56
2022/08/26 13:36:41;;;;;;;7.57;2.13;;;22.60;99.90;;;;;;5046578;28;20403;-56